الصفحة الرئيسية
METAR-TAF:

METAR-TAF

مطار :

ساليرنو, إيطاليا

دائرة عرض: 40-37N, خط طول: 014-55E, ارتفاع: 40 متر

مراقبة الطقس الحالي

تاريخ ووقت الإصدار 1ساعة و 16 دقيقة قبل الساعة 09:50UTC
ريح 4 عقدة من الغرب
درجة الحرارة 17°درجة مئوية
الرطوبة 63%
ضغط 1022 hPa
الرؤية 10 كم أو أكثر
الغيوم لا تقل 1500 م ولا وجود لمزنة ركامية السحاب الأسود

METAR: LIRI 250950Z 26004KT CAVOK 17/10 Q1022

زمن: 12:06 (11:06 UTC)


TAF: مفقودة

أرصاد الطقس والتوقعات من أكثر من 4000 مطار (تقارير الطقس للمطار METAR والتنبؤ بالطقس بالمطارTAF).

المحطات المتاحة هي النقط الصفراء والحمراء على الخريطة.

حرك المؤشر فوق النقطة لمعرفة اسم المحطة.

ثم انقر لمعرفة أرصاد وتوقعات الطقس.

لتغيير الخارطة: اضغط على الأزرار الخضراء مع رمز الصليب الأسود للتكبير. على الزر الأخضر مع شرطة للتصغير، أو على الأسهم الخضراء للخرائط المجاورة.


METAR-TAF: